Time;durP1;ratioP1;P1;durP2;ratioP2;P2;SDS_P1;SDS_P2;PMS_P1;PMS_P2;Temp;Humidity;BMP_temperature;BMP_pressure;BME280_temperature;BME280_humidity;BME280_pressure;Samples;Min_cycle;Max_cycle;Signal;HPM_P1;HPM_P2
2022/08/12 00:44:14;;;;;;;12.15;7.88;;;21.60;58.80;;;;;;4995264;28;20029;-77
2022/08/12 00:46:58;;;;;;;12.65;8.63;;;21.60;59.00;;;;;;4984930;28;20035;-77
2022/08/12 00:49:25;;;;;;;12.02;8.52;;;21.60;59.20;;;;;;4980046;28;20105;-76
2022/08/12 00:52:10;;;;;;;13.35;8.82;;;21.50;59.60;;;;;;4992930;28;20351;-76
2022/08/12 00:54:43;;;;;;;11.32;9.00;;;21.50;59.90;;;;;;4986469;28;20027;-77
2022/08/12 00:57:09;;;;;;;11.02;8.27;;;21.40;60.20;;;;;;4976673;28;20031;-77
2022/08/12 00:59:41;;;;;;;11.90;9.40;;;21.30;60.40;;;;;;4986531;28;20049;-77
2022/08/12 01:02:07;;;;;;;13.60;9.20;;;21.30;60.70;;;;;;4986428;28;20061;-77
2022/08/12 01:12:51;;;;;;;13.57;10.43;;;21.20;61.60;;;;;;4982468;28;20053;-77
2022/08/12 01:15:18;;;;;;;13.98;9.10;;;21.10;62.00;;;;;;4985115;28;20034;-77
2022/08/12 01:17:45;;;;;;;10.98;9.00;;;21.10;62.30;;;;;;4980473;28;20050;-77
2022/08/12 01:20:21;;;;;;;12.73;9.73;;;21.10;62.40;;;;;;4987365;28;20035;-78
2022/08/12 01:23:07;;;;;;;12.18;9.43;;;21.00;62.70;;;;;;4999383;28;20477;-77
2022/08/12 01:25:37;;;;;;;13.10;10.05;;;21.00;62.90;;;;;;4978684;28;20039;-77
2022/08/12 01:28:05;;;;;;;11.10;9.48;;;20.90;63.00;;;;;;5008585;28;20453;-77
2022/08/12 01:30:32;;;;;;;11.55;9.25;;;20.90;63.20;;;;;;4978218;28;20153;-77
2022/08/12 01:33:01;;;;;;;13.73;10.63;;;20.90;63.20;;;;;;4998326;28;20041;-77
2022/08/12 01:35:30;;;;;;;16.10;10.50;;;20.90;63.40;;;;;;5002757;28;20097;-77
2022/08/12 01:38:01;;;;;;;12.05;9.88;;;20.90;63.40;;;;;;4985186;28;20025;-77
2022/08/12 01:40:29;;;;;;;11.30;9.27;;;20.90;63.60;;;;;;5007765;28;20050;-77
2022/08/12 01:42:59;;;;;;;13.00;10.25;;;20.80;63.70;;;;;;5004287;28;20041;-77
2022/08/12 01:45:28;;;;;;;16.80;11.25;;;20.80;63.80;;;;;;4997672;28;20037;-77
2022/08/12 01:48:22;;;;;;;12.82;10.60;;;20.80;64.00;;;;;;4998083;28;20092;-77
2022/08/12 01:51:00;;;;;;;12.88;10.13;;;20.80;64.20;;;;;;5005889;28;20401;-77
2022/08/12 01:53:45;;;;;;;12.32;10.60;;;20.70;64.30;;;;;;5012815;28;20034;-77
2022/08/12 01:56:13;;;;;;;11.60;10.40;;;20.70;64.60;;;;;;4994339;28;20034;-77
2022/08/12 02:01:33;;;;;;;12.02;10.18;;;20.60;64.90;;;;;;4984972;28;20055;-77
2022/08/12 02:13:29;;;;;;;13.13;11.45;;;20.40;65.80;;;;;;4990333;28;20104;-77
2022/08/12 02:16:12;;;;;;;14.23;11.48;;;20.40;65.80;;;;;;4982237;28;20043;-78
2022/08/12 02:19:00;;;;;;;15.95;12.45;;;20.40;66.00;;;;;;5008746;28;20030;-77
2022/08/12 02:21:40;;;;;;;18.13;13.35;;;20.40;66.10;;;;;;5001771;28;20569;-78
2022/08/12 02:24:11;;;;;;;14.98;13.02;;;20.40;66.60;;;;;;4982780;28;20031;-77
2022/08/12 02:26:39;;;;;;;15.18;13.52;;;20.30;66.80;;;;;;4986030;28;20177;-77
2022/08/12 02:29:06;;;;;;;14.20;12.30;;;20.30;66.80;;;;;;4994112;28;20084;-78
2022/08/12 02:31:34;;;;;;;15.48;13.02;;;20.30;66.90;;;;;;4992949;28;20081;-77
2022/08/12 02:34:01;;;;;;;15.85;12.80;;;20.30;67.10;;;;;;4984532;28;20042;-77
2022/08/12 02:36:28;;;;;;;17.85;13.75;;;20.20;67.30;;;;;;4998668;28;20038;-77
2022/08/12 02:38:54;;;;;;;16.65;14.25;;;20.10;67.40;;;;;;5009855;28;20433;-77
2022/08/12 02:41:24;;;;;;;16.95;14.07;;;20.10;67.50;;;;;;4991874;28;20041;-77
2022/08/12 02:43:53;;;;;;;17.27;15.43;;;20.10;67.70;;;;;;4992895;28;20068;-77
2022/08/12 02:46:29;;;;;;;19.30;14.45;;;20.10;68.00;;;;;;4999428;28;20022;-77
2022/08/12 02:49:18;;;;;;;18.55;15.23;;;20.00;68.00;;;;;;5000453;28;20026;-77
2022/08/12 02:51:44;;;;;;;16.75;13.65;;;20.00;68.10;;;;;;4985259;28;20037;-77
2022/08/12 02:54:10;;;;;;;16.50;14.05;;;19.90;68.20;;;;;;4999501;28;20038;-77
2022/08/12 02:56:41;;;;;;;19.40;15.15;;;19.90;68.40;;;;;;4989017;28;20453;-77
2022/08/12 02:59:15;;;;;;;17.50;14.30;;;19.80;68.50;;;;;;5000561;28;20026;-77
2022/08/12 03:01:49;;;;;;;14.37;12.93;;;19.70;69.00;;;;;;4992880;28;20035;-77
2022/08/12 03:04:26;;;;;;;15.90;14.25;;;19.70;68.90;;;;;;4999885;28;20046;-78
2022/08/12 03:07:23;;;;;;;16.70;14.35;;;19.70;68.90;;;;;;4990748;28;20053;-77
2022/08/12 03:10:08;;;;;;;15.55;13.63;;;19.70;69.00;;;;;;5010248;28;20032;-77
2022/08/12 03:12:36;;;;;;;17.40;15.13;;;19.60;68.90;;;;;;5011786;28;20048;-77
2022/08/12 03:15:09;;;;;;;18.88;15.57;;;19.60;69.10;;;;;;5022314;28;20049;-77
2022/08/12 03:17:55;;;;;;;20.10;15.75;;;19.60;69.50;;;;;;5012855;28;20469;-77
2022/08/12 03:20:21;;;;;;;17.20;15.23;;;19.60;69.50;;;;;;5016891;28;20084;-76
2022/08/12 03:22:49;;;;;;;16.67;14.55;;;19.60;69.50;;;;;;5023116;28;20018;-76
2022/08/12 03:25:23;;;;;;;17.85;15.35;;;19.50;69.70;;;;;;5025207;28;20030;-77
2022/08/12 03:27:54;;;;;;;18.60;15.23;;;19.50;69.80;;;;;;5018408;28;20039;-76
2022/08/12 03:30:25;;;;;;;16.20;14.27;;;19.50;69.70;;;;;;5011546;28;20461;-77
2022/08/12 03:32:53;;;;;;;15.85;13.93;;;19.50;69.80;;;;;;5022316;28;20033;-77
2022/08/12 03:35:26;;;;;;;15.35;13.60;;;19.40;69.90;;;;;;5019389;28;20033;-77
2022/08/12 03:37:57;;;;;;;19.25;14.85;;;19.40;69.90;;;;;;5012321;28;20116;-78
2022/08/12 04:00:22;;;;;;;;;;;19.10;70.30;;;;;;4994339;28;20547;-77
2022/08/12 04:02:54;;;;;;;16.48;13.60;;;19.10;70.40;;;;;;4989895;28;19997;-78
2022/08/12 04:05:20;;;;;;;16.73;14.93;;;19.10;70.40;;;;;;4990779;28;20034;-77
2022/08/12 04:07:46;;;;;;;17.58;15.35;;;19.10;70.40;;;;;;4985046;28;20510;-77
2022/08/12 04:10:13;;;;;;;15.85;13.57;;;19.00;70.60;;;;;;4994241;28;20512;-78
2022/08/12 04:15:26;;;;;;;18.08;15.65;;;18.90;70.50;;;;;;4980367;28;20362;-78
2022/08/12 04:17:52;;;;;;;18.08;14.60;;;18.90;70.60;;;;;;4985716;28;20046;-78
2022/08/12 04:20:21;;;;;;;17.30;15.50;;;18.80;70.80;;;;;;4995980;28;20014;-78
2022/08/12 04:22:47;;;;;;;17.02;15.32;;;18.80;70.90;;;;;;5000631;28;20084;-78
2022/08/12 04:25:13;;;;;;;17.55;15.20;;;18.80;71.20;;;;;;5001035;28;20113;-77
2022/08/12 04:27:43;;;;;;;16.08;13.73;;;18.70;71.30;;;;;;4987176;28;20121;-77
2022/08/12 04:30:10;;;;;;;17.88;14.65;;;18.70;71.40;;;;;;5000494;28;20117;-77
2022/08/12 04:32:36;;;;;;;21.05;15.68;;;18.70;71.40;;;;;;5000115;28;20038;-78
2022/08/12 04:35:02;;;;;;;17.27;14.93;;;18.70;71.60;;;;;;5001008;28;20499;-77
2022/08/12 04:37:29;;;;;;;19.02;16.35;;;18.60;71.60;;;;;;4991354;28;20025;-78
2022/08/12 04:39:56;;;;;;;17.00;15.23;;;18.60;71.60;;;;;;5001332;28;20465;-78
2022/08/12 04:42:25;;;;;;;16.95;14.88;;;18.70;71.70;;;;;;4996085;28;20362;-78
2022/08/12 04:44:50;;;;;;;17.55;14.65;;;18.60;71.70;;;;;;4994912;28;20028;-78
2022/08/12 04:47:18;;;;;;;19.35;15.02;;;18.70;71.70;;;;;;4996154;28;20022;-78
2022/08/12 04:49:45;;;;;;;22.98;17.55;;;18.70;71.70;;;;;;4994362;28;20403;-78
2022/08/12 04:52:10;;;;;;;19.58;15.57;;;18.70;71.60;;;;;;4995190;28;20053;-77
2022/08/12 04:54:36;;;;;;;21.58;16.33;;;18.60;71.80;;;;;;4993845;28;20380;-77
2022/08/12 04:57:04;;;;;;;20.27;16.80;;;18.70;71.60;;;;;;4995284;28;20034;-76
2022/08/12 04:59:31;;;;;;;19.00;17.02;;;18.80;71.60;;;;;;4984557;28;20805;-78
2022/08/12 05:01:57;;;;;;;18.35;16.08;;;18.70;71.90;;;;;;4991060;28;20121;-77
2022/08/12 05:04:26;;;;;;;17.83;15.95;;;18.70;71.90;;;;;;4991518;28;20130;-77
2022/08/12 05:06:52;;;;;;;19.65;15.40;;;18.70;72.00;;;;;;4991650;28;20042;-77
2022/08/12 05:09:17;;;;;;;17.00;14.70;;;18.70;72.00;;;;;;4991050;28;20513;-76
2022/08/12 05:11:48;;;;;;;20.33;15.43;;;18.80;71.90;;;;;;4992748;28;20342;-78
2022/08/12 05:14:15;;;;;;;19.15;16.33;;;18.80;71.80;;;;;;4995963;28;20050;-77
2022/08/12 05:16:41;;;;;;;19.13;15.90;;;18.90;71.60;;;;;;4995542;28;20042;-77
2022/08/12 05:19:07;;;;;;;19.05;15.93;;;19.00;71.50;;;;;;5007197;28;20061;-77
2022/08/12 05:21:32;;;;;;;18.38;16.48;;;19.00;71.30;;;;;;5000242;28;20053;-77
2022/08/12 05:23:59;;;;;;;21.75;17.05;;;19.00;71.00;;;;;;5007993;28;20030;-77
2022/08/12 05:26:25;;;;;;;19.48;16.13;;;19.00;70.90;;;;;;5006340;28;20084;-77
2022/08/12 05:28:52;;;;;;;23.58;17.25;;;19.00;70.80;;;;;;5002706;28;20044;-77
2022/08/12 05:31:19;;;;;;;18.80;16.00;;;19.10;70.70;;;;;;5003017;28;20052;-77
2022/08/12 05:33:46;;;;;;;17.85;16.02;;;19.00;70.60;;;;;;4996979;28;20022;-77
2022/08/12 05:36:14;;;;;;;18.73;15.43;;;19.10;70.50;;;;;;5002599;28;20099;-77
2022/08/12 05:38:56;;;;;;;18.48;15.93;;;19.10;70.40;;;;;;5006946;28;20029;-77
2022/08/12 05:41:30;;;;;;;17.48;15.60;;;19.10;70.00;;;;;;4996675;28;20513;-76
2022/08/12 05:43:59;;;;;;;20.88;16.08;;;19.10;69.60;;;;;;4993566;28;20045;-78
2022/08/12 05:46:27;;;;;;;19.42;15.93;;;19.10;69.70;;;;;;4995287;28;20369;-77
2022/08/12 05:48:55;;;;;;;16.80;14.98;;;19.10;69.80;;;;;;4999408;28;20042;-77
2022/08/12 05:51:25;;;;;;;17.13;15.32;;;19.10;69.30;;;;;;4993845;28;20108;-77
2022/08/12 05:53:55;;;;;;;19.95;14.55;;;19.20;68.90;;;;;;4994551;28;20060;-77
2022/08/12 05:56:23;;;;;;;19.80;14.32;;;19.40;68.70;;;;;;4992775;28;20422;-77
2022/08/12 05:58:50;;;;;;;19.83;14.73;;;19.50;68.20;;;;;;4988745;28;20057;-77
2022/08/12 06:01:17;;;;;;;18.83;14.48;;;19.60;68.20;;;;;;4989448;28;20030;-77
2022/08/12 06:03:43;;;;;;;18.42;13.80;;;19.60;67.90;;;;;;5030226;28;21343;-77
2022/08/12 06:06:15;;;;;;;19.17;14.95;;;19.70;67.70;;;;;;5011295;28;20145;-77
2022/08/12 06:08:44;;;;;;;17.00;13.85;;;19.80;67.30;;;;;;4995341;28;20034;-78
2022/08/12 06:11:10;;;;;;;20.35;14.18;;;19.80;66.70;;;;;;5000622;28;20414;-77
2022/08/12 06:13:37;;;;;;;20.77;14.68;;;19.90;65.70;;;;;;4992317;28;20034;-77
2022/08/12 06:16:08;;;;;;;16.90;14.68;;;20.00;65.70;;;;;;4979582;28;20034;-76
2022/08/12 06:18:38;;;;;;;17.85;14.07;;;20.10;65.30;;;;;;5001151;28;20033;-78
2022/08/12 06:21:06;;;;;;;16.50;12.57;;;20.20;65.00;;;;;;5011017;28;20044;-78
2022/08/12 06:23:31;;;;;;;18.17;14.38;;;20.40;64.60;;;;;;5006139;28;20030;-78
2022/08/12 06:25:58;;;;;;;18.48;13.50;;;20.60;63.90;;;;;;5012305;28;20038;-78
2022/08/12 06:28:24;;;;;;;21.73;13.00;;;20.70;63.20;;;;;;4988130;28;20050;-78
2022/08/12 06:30:51;;;;;;;21.90;13.07;;;20.80;62.60;;;;;;4989325;28;20114;-78
2022/08/12 06:33:17;;;;;;;18.40;13.15;;;21.00;61.60;;;;;;4986357;28;20037;-78
2022/08/12 06:35:43;;;;;;;19.05;13.00;;;21.10;61.00;;;;;;4983422;28;20137;-78
2022/08/12 06:38:18;;;;;;;15.95;13.05;;;21.20;60.20;;;;;;4988515;28;20073;-79
2022/08/12 06:43:29;;;;;;;15.35;12.55;;;21.50;59.00;;;;;;4996642;28;20119;-71
2022/08/12 06:45:57;;;;;;;18.05;12.32;;;21.70;58.50;;;;;;4986699;28;20042;-71
2022/08/12 06:48:27;;;;;;;18.30;13.52;;;22.00;58.00;;;;;;4986326;28;20394;-71
2022/08/12 06:50:57;;;;;;;18.75;12.85;;;22.10;57.50;;;;;;4984957;28;20043;-70
2022/08/12 06:53:25;;;;;;;16.05;12.82;;;22.20;57.40;;;;;;4983391;28;20049;-69
2022/08/12 06:55:53;;;;;;;18.88;12.18;;;22.50;56.40;;;;;;4985940;28;20050;-68
2022/08/12 06:58:21;;;;;;;18.88;11.55;;;22.60;56.10;;;;;;4992817;28;20397;-72
2022/08/12 07:00:48;;;;;;;14.40;10.20;;;22.80;55.80;;;;;;5001569;28;20043;-72
2022/08/12 07:03:24;;;;;;;16.77;12.82;;;23.00;55.00;;;;;;4972632;28;20035;-72
2022/08/12 07:05:50;;;;;;;14.98;11.85;;;23.10;53.70;;;;;;4985474;28;20041;-72
2022/08/12 07:08:16;;;;;;;16.77;11.60;;;23.30;52.90;;;;;;5013618;28;20030;-72
2022/08/12 07:11:00;;;;;;;17.88;11.68;;;23.60;52.70;;;;;;5000953;28;20069;-72
2022/08/12 07:13:36;;;;;;;17.30;11.73;;;23.70;52.30;;;;;;5003864;28;20111;-72
2022/08/12 07:16:03;;;;;;;13.75;10.13;;;24.10;51.40;;;;;;4980431;28;20043;-72
2022/08/12 07:18:31;;;;;;;16.38;11.40;;;24.20;51.40;;;;;;4992972;28;20026;-72
2022/08/12 07:21:00;;;;;;;13.25;10.68;;;24.20;50.50;;;;;;4992011;28;20088;-72
2022/08/12 07:23:26;;;;;;;11.75;8.80;;;24.40;50.60;;;;;;5004427;28;20095;-72
2022/08/12 07:25:53;;;;;;;14.57;9.75;;;24.70;50.40;;;;;;5004217;28;20041;-72
2022/08/12 07:28:22;;;;;;;12.65;8.10;;;24.90;49.00;;;;;;4998665;28;20034;-72
2022/08/12 07:30:50;;;;;;;11.85;8.38;;;25.10;48.30;;;;;;5008215;28;20026;-72
2022/08/12 07:33:18;;;;;;;14.20;9.32;;;25.30;48.40;;;;;;5005180;28;20034;-71
2022/08/12 07:35:46;;;;;;;12.57;9.40;;;25.50;47.40;;;;;;5005556;28;20532;-72
2022/08/12 07:38:32;;;;;;;13.30;9.73;;;25.70;46.80;;;;;;5011026;28;20512;-72
2022/08/12 07:41:24;;;;;;;16.20;10.35;;;25.80;46.20;;;;;;5014526;28;20045;-72
2022/08/12 07:43:55;;;;;;;13.02;8.80;;;26.00;45.10;;;;;;5004364;28;20284;-72
2022/08/12 07:46:30;;;;;;;11.13;9.23;;;26.10;45.20;;;;;;5000539;28;20189;-72
2022/08/12 07:49:00;;;;;;;13.63;9.63;;;26.20;44.00;;;;;;4986554;28;20030;-72
2022/08/12 07:51:27;;;;;;;13.15;8.85;;;26.20;43.80;;;;;;5004566;28;20474;-74
2022/08/12 07:53:55;;;;;;;13.40;7.78;;;26.30;44.10;;;;;;5022749;28;20038;-74
2022/08/12 07:56:20;;;;;;;13.93;7.75;;;26.50;43.70;;;;;;4988289;28;20046;-73
2022/08/12 07:58:46;;;;;;;12.60;7.97;;;26.80;43.90;;;;;;4991253;28;20196;-74
2022/08/12 08:01:14;;;;;;;11.82;7.80;;;26.80;43.10;;;;;;4986852;28;20465;-74
2022/08/12 08:06:27;;;;;;;13.63;8.30;;;26.60;42.60;;;;;;4990671;28;20072;-74
2022/08/12 08:08:55;;;;;;;15.73;7.70;;;26.30;42.50;;;;;;4982040;28;20042;-74
2022/08/12 08:14:07;;;;;;;10.02;6.93;;;26.60;43.10;;;;;;4975296;28;20061;-74
2022/08/12 08:16:36;;;;;;;14.65;7.93;;;27.10;42.40;;;;;;4982553;28;20518;-74
2022/08/12 08:19:03;;;;;;;13.82;7.07;;;27.00;41.40;;;;;;4982406;28;20395;-75
2022/08/12 08:21:32;;;;;;;15.20;7.43;;;27.20;41.00;;;;;;4982586;28;20176;-74
2022/08/12 08:24:14;;;;;;;12.10;6.75;;;27.60;40.30;;;;;;4977258;28;20053;-74
2022/08/12 08:26:46;;;;;;;11.75;6.72;;;27.70;40.00;;;;;;4986500;28;20073;-76
2022/08/12 08:29:13;;;;;;;8.35;5.90;;;28.00;39.80;;;;;;4979704;28;20034;-75
2022/08/12 08:31:49;;;;;;;12.63;5.97;;;28.30;39.40;;;;;;4981646;28;20065;-75
2022/08/12 08:34:16;;;;;;;11.77;6.30;;;28.40;38.90;;;;;;4985614;28;20035;-75
2022/08/12 08:36:43;;;;;;;11.13;5.95;;;28.60;39.00;;;;;;4981993;28;20045;-76
2022/08/12 08:39:11;;;;;;;13.93;6.43;;;28.70;38.60;;;;;;4982006;28;20030;-75
2022/08/12 08:44:21;;;;;;;8.55;5.32;;;28.60;37.20;;;;;;4978085;28;20180;-70
2022/08/12 08:46:48;;;;;;;9.30;4.97;;;28.80;37.90;;;;;;4986480;28;20501;-70
2022/08/12 08:49:17;;;;;;;11.38;5.63;;;29.00;37.50;;;;;;4980260;28;20038;-69
2022/08/12 08:51:44;;;;;;;9.65;5.15;;;29.10;36.90;;;;;;4977419;28;20045;-70
2022/08/12 08:54:11;;;;;;;9.55;4.80;;;29.50;36.40;;;;;;4986338;28;20454;-69
2022/08/12 08:56:51;;;;;;;8.50;5.03;;;29.70;36.00;;;;;;4978151;28;20490;-70
2022/08/12 08:59:18;;;;;;;14.18;6.03;;;29.80;35.30;;;;;;4984703;28;20114;-69
2022/08/12 09:01:45;;;;;;;10.80;4.90;;;29.60;34.60;;;;;;4982737;28;20039;-70
2022/08/12 09:04:11;;;;;;;9.60;4.88;;;29.70;35.30;;;;;;4975775;28;20121;-70
2022/08/12 09:06:41;;;;;;;11.80;4.88;;;30.00;34.80;;;;;;4977000;28;20401;-71
2022/08/12 09:09:10;;;;;;;12.93;5.28;;;30.00;34.40;;;;;;4980292;28;20129;-70
2022/08/12 09:14:21;;;;;;;9.48;5.43;;;30.30;33.50;;;;;;4989292;28;20228;-70
2022/08/12 09:16:49;;;;;;;10.82;4.93;;;30.00;33.60;;;;;;4988805;28;20034;-70
2022/08/12 09:19:16;;;;;;;10.98;4.53;;;30.20;33.10;;;;;;4994388;28;20033;-69
2022/08/12 09:21:46;;;;;;;9.52;5.05;;;30.50;33.30;;;;;;4992950;28;20129;-69
2022/08/12 09:24:14;;;;;;;8.93;4.55;;;30.60;33.40;;;;;;4989116;28;20042;-69
2022/08/12 09:26:40;;;;;;;17.55;4.65;;;30.80;32.60;;;;;;4991641;28;20053;-70
2022/08/12 09:29:07;;;;;;;10.38;4.85;;;30.80;32.90;;;;;;4990455;28;20463;-70
2022/08/12 09:31:34;;;;;;;12.73;5.18;;;31.00;32.90;;;;;;5005360;28;20534;-71
2022/08/12 09:33:59;;;;;;;11.40;5.07;;;31.00;33.10;;;;;;4988965;28;20600;-70
2022/08/12 09:36:25;;;;;;;8.90;4.70;;;30.90;33.10;;;;;;4988193;28;20425;-70
2022/08/12 09:38:51;;;;;;;11.63;4.40;;;30.90;32.60;;;;;;5010016;28;20040;-69
2022/08/12 09:41:17;;;;;;;12.95;4.28;;;31.30;32.00;;;;;;5030157;28;20595;-70
2022/08/12 09:46:27;;;;;;;14.38;4.68;;;31.40;31.20;;;;;;4992546;28;20091;-70
2022/08/12 09:48:53;;;;;;;10.45;4.43;;;31.50;31.40;;;;;;4995739;28;20513;-70
2022/08/12 09:51:19;;;;;;;8.38;4.00;;;31.50;30.60;;;;;;4996914;28;20114;-69
2022/08/12 09:53:46;;;;;;;9.38;3.75;;;31.50;30.20;;;;;;4998878;28;20027;-70
2022/08/12 09:56:16;;;;;;;9.25;3.90;;;31.60;29.60;;;;;;4989675;28;20139;-73
2022/08/12 09:58:46;;;;;;;9.68;4.43;;;31.50;29.70;;;;;;5030710;28;20058;-70
2022/08/12 10:01:13;;;;;;;8.88;3.92;;;31.50;30.40;;;;;;5005005;28;20049;-70
2022/08/12 10:03:41;;;;;;;9.68;3.85;;;31.50;30.10;;;;;;5004538;28;20036;-70
2022/08/12 10:06:07;;;;;;;7.75;4.18;;;31.80;30.00;;;;;;4999843;28;20463;-75
2022/08/12 10:08:35;;;;;;;9.65;3.72;;;32.20;29.00;;;;;;4994504;28;20081;-73
2022/08/12 10:13:55;;;;;;;7.60;3.75;;;32.00;29.20;;;;;;4992440;28;20705;-76
2022/08/12 10:16:27;;;;;;;10.30;4.20;;;32.40;28.90;;;;;;5002068;28;20398;-76
2022/08/12 10:19:02;;;;;;;7.35;3.65;;;32.50;28.30;;;;;;4999619;28;20025;-76
2022/08/12 10:21:35;;;;;;;9.20;4.32;;;32.90;27.80;;;;;;5001078;28;20088;-76
2022/08/12 10:24:03;;;;;;;9.60;3.80;;;33.00;27.50;;;;;;5003387;28;20022;-76
2022/08/12 10:31:59;;;;;;;8.50;3.95;;;32.30;28.00;;;;;;5004308;28;20081;-76
2022/08/12 10:34:26;;;;;;;10.55;4.10;;;32.80;28.40;;;;;;5003686;28;20443;-77
2022/08/12 10:36:57;;;;;;;8.50;3.75;;;33.10;27.50;;;;;;5002977;28;20053;-77
2022/08/12 10:39:25;;;;;;;9.02;3.92;;;33.40;27.60;;;;;;5002190;28;20042;-79
2022/08/12 10:44:35;;;;;;;14.55;4.28;;;33.10;27.10;;;;;;5003795;28;20096;-79
2022/08/12 10:47:03;;;;;;;9.40;3.95;;;33.50;27.00;;;;;;5003870;28;20050;-79
2022/08/12 10:49:36;;;;;;;8.70;3.72;;;33.60;26.40;;;;;;5004685;28;20026;-79
2022/08/12 10:52:03;;;;;;;9.03;4.17;;;33.70;26.30;;;;;;5001893;28;20029;-79
2022/08/12 10:54:29;;;;;;;8.70;3.88;;;33.90;26.10;;;;;;5003954;28;20089;-79
2022/08/12 10:56:56;;;;;;;9.13;3.65;;;33.90;25.50;;;;;;5000471;28;20469;-77
2022/08/12 10:59:31;;;;;;;9.77;3.85;;;33.80;25.40;;;;;;5001066;28;20022;-78
2022/08/12 11:01:58;;;;;;;10.43;4.10;;;33.80;25.90;;;;;;4998396;28;20038;-77
2022/08/12 11:04:30;;;;;;;7.20;3.78;;;33.80;26.00;;;;;;5004386;28;20065;-77
2022/08/12 11:06:57;;;;;;;9.18;3.58;;;34.00;26.40;;;;;;5000390;28;20030;-78
2022/08/12 11:09:24;;;;;;;8.85;3.40;;;34.20;24.50;;;;;;4995535;28;20057;-78
2022/08/12 11:11:50;;;;;;;7.60;3.72;;;34.10;25.10;;;;;;4998863;28;20449;-79
2022/08/12 11:14:27;;;;;;;9.90;3.70;;;34.10;25.40;;;;;;5002643;28;20080;-78
2022/08/12 11:17:06;;;;;;;10.38;4.07;;;34.10;25.00;;;;;;4999633;28;20048;-78
2022/08/12 11:19:34;;;;;;;12.27;4.10;;;33.80;25.30;;;;;;5015333;28;20049;-78
2022/08/12 11:22:00;;;;;;;8.20;4.10;;;33.90;25.60;;;;;;5003867;28;20045;-78
2022/08/12 11:24:27;;;;;;;7.95;3.65;;;34.00;25.80;;;;;;5004723;28;20030;-79
2022/08/12 11:26:54;;;;;;;7.25;4.30;;;34.00;25.40;;;;;;5004534;28;20104;-79
2022/08/12 11:29:22;;;;;;;10.55;4.45;;;34.20;25.10;;;;;;5001504;28;20022;-78
2022/08/12 11:31:48;;;;;;;9.30;3.70;;;33.70;25.70;;;;;;5000176;28;20029;-78
2022/08/12 11:34:15;;;;;;;9.85;3.88;;;33.80;25.30;;;;;;5001405;28;20327;-79
2022/08/12 11:36:55;;;;;;;9.85;4.03;;;34.00;25.30;;;;;;5003502;28;20088;-78
2022/08/12 11:39:22;;;;;;;7.10;3.80;;;33.70;24.90;;;;;;4998944;28;20038;-79
2022/08/12 11:41:48;;;;;;;9.18;4.00;;;34.00;25.60;;;;;;5002291;28;20064;-79
2022/08/12 11:44:15;;;;;;;6.82;3.75;;;34.20;25.00;;;;;;5013829;28;20052;-77
2022/08/12 11:46:42;;;;;;;8.23;4.00;;;34.00;25.50;;;;;;5006221;28;20139;-77
2022/08/12 11:49:08;;;;;;;13.88;4.20;;;34.30;25.30;;;;;;5004374;28;20374;-79
2022/08/12 11:51:35;;;;;;;10.60;3.90;;;34.60;26.00;;;;;;5003876;28;20033;-79
2022/08/12 11:54:01;;;;;;;9.13;4.00;;;34.60;24.60;;;;;;5004779;28;20034;-79
2022/08/12 11:56:28;;;;;;;11.60;4.30;;;34.30;24.60;;;;;;4990676;28;20901;-78
2022/08/12 11:58:53;;;;;;;8.63;4.13;;;34.00;24.50;;;;;;4993628;28;20034;-78
2022/08/12 12:01:19;;;;;;;8.27;3.70;;;33.90;25.20;;;;;;4998269;28;20079;-78
2022/08/12 12:03:45;;;;;;;11.27;4.00;;;34.10;25.20;;;;;;5005364;28;20087;-78
2022/08/12 12:06:11;;;;;;;11.57;4.82;;;34.10;25.00;;;;;;4998791;28;20180;-78
2022/08/12 12:08:37;;;;;;;13.60;6.20;;;34.30;25.00;;;;;;5001263;28;20071;-78
2022/08/12 12:11:02;;;;;;;6.38;3.60;;;34.30;24.60;;;;;;4999617;28;20104;-78
2022/08/12 12:13:28;;;;;;;9.45;3.83;;;34.30;24.60;;;;;;4998760;28;20153;-78
2022/08/12 12:15:54;;;;;;;8.27;3.85;;;33.60;24.50;;;;;;4997818;28;20084;-78
2022/08/12 12:18:22;;;;;;;7.20;3.30;;;33.80;25.00;;;;;;4996455;28;20402;-78
2022/08/12 12:20:48;;;;;;;7.57;4.13;;;34.10;24.30;;;;;;4994831;28;20076;-78
2022/08/12 12:23:13;;;;;;;9.55;4.30;;;34.30;25.00;;;;;;4993872;28;20034;-78
2022/08/12 12:25:39;;;;;;;7.60;3.65;;;34.40;24.80;;;;;;5002042;28;20053;-78
2022/08/12 12:28:05;;;;;;;6.65;3.80;;;34.50;24.50;;;;;;4997470;28;20030;-78
2022/08/12 12:30:30;;;;;;;10.25;3.80;;;34.60;24.60;;;;;;4999102;28;20134;-78
2022/08/12 12:32:57;;;;;;;7.68;4.25;;;34.70;24.30;;;;;;5000717;28;20044;-79
2022/08/12 12:35:23;;;;;;;9.02;3.75;;;34.80;24.60;;;;;;4997167;28;20505;-80
2022/08/12 12:37:56;;;;;;;10.75;4.43;;;34.10;24.60;;;;;;5000595;28;20048;-78
2022/08/12 12:40:24;;;;;;;7.28;4.10;;;33.80;25.00;;;;;;5000439;28;20038;-80
2022/08/12 12:42:50;;;;;;;9.77;3.63;;;33.70;25.20;;;;;;5000921;28;20144;-78
2022/08/12 12:45:16;;;;;;;10.18;4.00;;;33.60;25.00;;;;;;5003451;28;20141;-80
2022/08/12 12:48:11;;;;;;;9.48;3.92;;;33.60;25.00;;;;;;5001872;28;20049;-79
2022/08/12 12:50:43;;;;;;;9.52;4.00;;;33.50;25.00;;;;;;4994159;28;20076;-81
2022/08/12 12:53:11;;;;;;;10.98;3.78;;;33.60;25.40;;;;;;4996523;28;20042;-82
2022/08/12 12:55:37;;;;;;;8.25;3.75;;;33.90;24.70;;;;;;4996312;28;20037;-81
2022/08/12 12:58:08;;;;;;;7.65;3.85;;;34.00;24.80;;;;;;4999920;28;20089;-80
2022/08/12 13:00:35;;;;;;;7.55;3.78;;;34.00;24.20;;;;;;4999744;28;20536;-82
2022/08/12 13:03:01;;;;;;;9.73;3.60;;;34.00;24.60;;;;;;5002037;28;20449;-80
2022/08/12 13:05:35;;;;;;;8.80;4.22;;;34.30;24.50;;;;;;5005714;28;20120;-81
2022/08/12 13:08:16;;;;;;;9.82;3.55;;;34.50;24.20;;;;;;4996863;28;20433;-79
2022/08/12 13:10:43;;;;;;;6.93;3.60;;;34.60;24.10;;;;;;5014575;28;20103;-81
2022/08/12 13:13:09;;;;;;;7.90;4.07;;;34.50;24.20;;;;;;4997675;28;20045;-82
2022/08/12 13:15:35;;;;;;;6.03;3.75;;;34.50;24.20;;;;;;5001815;28;20034;-83
2022/08/12 13:18:05;;;;;;;7.55;3.72;;;34.80;24.50;;;;;;5009028;28;20129;-82
2022/08/12 13:20:31;;;;;;;7.57;3.65;;;35.00;24.40;;;;;;5001073;28;20068;-83
2022/08/12 13:22:57;;;;;;;7.32;3.42;;;34.90;23.90;;;;;;5008307;28;20029;-82
2022/08/12 13:25:25;;;;;;;8.55;3.38;;;34.70;24.00;;;;;;4988980;28;20376;-80
2022/08/12 13:27:51;;;;;;;8.98;4.28;;;34.80;23.90;;;;;;5002503;28;20116;-81
2022/08/12 13:30:22;;;;;;;5.63;3.28;;;35.00;23.10;;;;;;5007492;28;20026;-81
2022/08/12 13:32:58;;;;;;;8.15;3.75;;;34.40;23.20;;;;;;5016696;28;20070;-81
2022/08/12 13:35:25;;;;;;;7.78;3.30;;;34.30;22.70;;;;;;5016071;28;20085;-80
2022/08/12 13:37:55;;;;;;;8.57;3.58;;;34.10;23.80;;;;;;5017366;28;20050;-81
2022/08/12 13:40:22;;;;;;;6.65;3.72;;;34.20;23.90;;;;;;5020832;28;20035;-80
2022/08/12 13:42:48;;;;;;;7.60;3.35;;;34.30;24.30;;;;;;5028018;28;20037;-82
2022/08/12 13:45:15;;;;;;;7.90;3.30;;;34.40;23.40;;;;;;5017837;28;20377;-79
2022/08/12 13:47:58;;;;;;;8.13;3.67;;;34.40;24.30;;;;;;4998857;28;20035;-81
2022/08/12 13:50:37;;;;;;;;;;;34.30;23.50;;;;;;5013503;28;20049;-82
2022/08/12 13:53:08;;;;;;;10.63;3.45;;;34.00;24.00;;;;;;5016644;28;19921;-79
2022/08/12 13:55:35;;;;;;;7.40;3.10;;;33.80;23.70;;;;;;5010767;28;20045;-81
2022/08/12 13:58:04;;;;;;;7.32;3.17;;;34.10;24.10;;;;;;4998713;28;20033;-83
2022/08/12 14:00:31;;;;;;;6.80;3.25;;;34.00;23.30;;;;;;5004018;28;20032;-80
2022/08/12 14:02:57;;;;;;;7.63;3.58;;;33.90;23.30;;;;;;5011515;28;20034;-80
2022/08/12 14:05:23;;;;;;;6.93;3.08;;;34.20;23.60;;;;;;5017269;28;20053;-84
2022/08/12 14:08:01;;;;;;;6.43;3.03;;;34.40;22.50;;;;;;5007388;28;20362;-82
2022/08/12 14:10:36;;;;;;;9.00;3.58;;;34.20;23.10;;;;;;5003042;28;20094;-83
2022/08/12 14:13:04;;;;;;;8.23;3.28;;;34.40;22.70;;;;;;5008129;28;20050;-81
2022/08/12 14:15:30;;;;;;;6.55;3.30;;;34.50;23.20;;;;;;5031945;28;20034;-82
2022/08/12 14:18:07;;;;;;;4.97;3.22;;;34.50;23.10;;;;;;5003083;28;20038;-81
2022/08/12 14:20:33;;;;;;;7.45;3.45;;;34.50;23.30;;;;;;4999420;28;20038;-81
2022/08/12 14:22:59;;;;;;;7.53;3.53;;;34.60;23.00;;;;;;4999529;28;20030;-82
2022/08/12 14:25:27;;;;;;;7.60;3.72;;;34.20;22.80;;;;;;4999855;28;20042;-81
2022/08/12 14:27:54;;;;;;;7.40;3.40;;;34.10;22.70;;;;;;4994741;28;20033;-82
2022/08/12 14:30:24;;;;;;;9.43;3.58;;;33.80;22.80;;;;;;5010517;28;20069;-80
2022/08/12 14:32:49;;;;;;;7.28;3.42;;;33.50;23.10;;;;;;5012159;28;20069;-79
2022/08/12 14:35:18;;;;;;;7.57;3.78;;;33.40;23.20;;;;;;5005501;28;20161;-80
2022/08/12 14:37:43;;;;;;;9.27;3.40;;;33.20;24.10;;;;;;5019222;28;20094;-80
2022/08/12 14:40:10;;;;;;;7.60;3.30;;;33.20;24.50;;;;;;5028283;28;20116;-81